sensor_id;sensor_type;location;lat;lon;timestamp;temperature;humidity
14357;DHT22;7262;48.764;9.166;2023-11-19T00:02:28;8.10;99.90
14357;DHT22;7262;48.764;9.166;2023-11-19T00:04:54;8.20;99.90
14357;DHT22;7262;48.764;9.166;2023-11-19T00:07:22;8.20;99.90
14357;DHT22;7262;48.764;9.166;2023-11-19T00:09:49;8.20;99.90
14357;DHT22;7262;48.764;9.166;2023-11-19T00:12:19;8.30;99.90
14357;DHT22;7262;48.764;9.166;2023-11-19T00:14:46;8.40;99.90
14357;DHT22;7262;48.764;9.166;2023-11-19T00:17:13;8.40;99.90
14357;DHT22;7262;48.764;9.166;2023-11-19T00:19:39;8.50;99.90
14357;DHT22;7262;48.764;9.166;2023-11-19T00:22:07;8.60;99.90
14357;DHT22;7262;48.764;9.166;2023-11-19T00:24:35;8.60;99.90
14357;DHT22;7262;48.764;9.166;2023-11-19T00:27:10;8.70;99.90
14357;DHT22;7262;48.764;9.166;2023-11-19T00:29:39;8.70;99.90
14357;DHT22;7262;48.764;9.166;2023-11-19T00:32:06;8.70;99.90
14357;DHT22;7262;48.764;9.166;2023-11-19T00:34:33;8.80;99.90
14357;DHT22;7262;48.764;9.166;2023-11-19T00:37:00;8.80;99.90
14357;DHT22;7262;48.764;9.166;2023-11-19T00:39:28;8.80;99.90
14357;DHT22;7262;48.764;9.166;2023-11-19T00:41:56;8.80;99.90
14357;DHT22;7262;48.764;9.166;2023-11-19T00:44:23;8.90;99.90
14357;DHT22;7262;48.764;9.166;2023-11-19T00:46:53;8.90;99.90
14357;DHT22;7262;48.764;9.166;2023-11-19T00:49:19;9.00;99.90
14357;DHT22;7262;48.764;9.166;2023-11-19T00:51:47;9.00;99.90
14357;DHT22;7262;48.764;9.166;2023-11-19T00:54:19;9.00;99.90
14357;DHT22;7262;48.764;9.166;2023-11-19T00:56:46;9.10;99.90
14357;DHT22;7262;48.764;9.166;2023-11-19T00:59:13;9.10;99.90
14357;DHT22;7262;48.764;9.166;2023-11-19T01:01:41;9.10;99.90
14357;DHT22;7262;48.764;9.166;2023-11-19T01:04:11;9.20;99.90
14357;DHT22;7262;48.764;9.166;2023-11-19T01:06:38;9.20;99.90
14357;DHT22;7262;48.764;9.166;2023-11-19T01:09:05;9.20;99.90
14357;DHT22;7262;48.764;9.166;2023-11-19T01:11:32;9.20;99.90
14357;DHT22;7262;48.764;9.166;2023-11-19T01:13:59;9.30;99.90
14357;DHT22;7262;48.764;9.166;2023-11-19T01:16:28;9.30;99.90
14357;DHT22;7262;48.764;9.166;2023-11-19T01:18:56;9.30;99.90
14357;DHT22;7262;48.764;9.166;2023-11-19T01:21:24;9.40;99.90
14357;DHT22;7262;48.764;9.166;2023-11-19T01:23:52;9.40;99.90
14357;DHT22;7262;48.764;9.166;2023-11-19T01:26:20;9.50;99.90
14357;DHT22;7262;48.764;9.166;2023-11-19T01:28:47;9.50;99.90
14357;DHT22;7262;48.764;9.166;2023-11-19T01:31:14;9.50;99.90
14357;DHT22;7262;48.764;9.166;2023-11-19T01:33:41;9.50;99.90
14357;DHT22;7262;48.764;9.166;2023-11-19T01:36:08;9.60;99.90
14357;DHT22;7262;48.764;9.166;2023-11-19T01:38:37;9.70;99.90
14357;DHT22;7262;48.764;9.166;2023-11-19T01:41:06;9.70;99.90
14357;DHT22;7262;48.764;9.166;2023-11-19T01:43:34;9.70;99.90
14357;DHT22;7262;48.764;9.166;2023-11-19T01:46:01;9.70;99.90
14357;DHT22;7262;48.764;9.166;2023-11-19T01:48:28;9.70;99.90
14357;DHT22;7262;48.764;9.166;2023-11-19T01:50:55;9.70;99.90
14357;DHT22;7262;48.764;9.166;2023-11-19T01:53:25;9.80;99.90
14357;DHT22;7262;48.764;9.166;2023-11-19T01:55:53;9.80;99.90
14357;DHT22;7262;48.764;9.166;2023-11-19T01:58:20;9.90;99.90
14357;DHT22;7262;48.764;9.166;2023-11-19T02:00:47;9.90;99.90
14357;DHT22;7262;48.764;9.166;2023-11-19T02:03:14;9.90;99.90
14357;DHT22;7262;48.764;9.166;2023-11-19T02:05:41;9.90;99.90
14357;DHT22;7262;48.764;9.166;2023-11-19T02:08:12;9.90;99.90
14357;DHT22;7262;48.764;9.166;2023-11-19T02:10:39;10.00;99.90
14357;DHT22;7262;48.764;9.166;2023-11-19T02:13:07;10.00;99.90
14357;DHT22;7262;48.764;9.166;2023-11-19T02:15:35;9.90;99.90
14357;DHT22;7262;48.764;9.166;2023-11-19T02:18:19;9.90;99.90
14357;DHT22;7262;48.764;9.166;2023-11-19T02:20:47;9.90;99.90
14357;DHT22;7262;48.764;9.166;2023-11-19T02:23:13;9.90;99.90
14357;DHT22;7262;48.764;9.166;2023-11-19T02:25:40;9.90;99.90
14357;DHT22;7262;48.764;9.166;2023-11-19T02:28:09;10.00;99.90
14357;DHT22;7262;48.764;9.166;2023-11-19T02:30:41;10.00;99.90
14357;DHT22;7262;48.764;9.166;2023-11-19T02:33:08;10.00;99.90
14357;DHT22;7262;48.764;9.166;2023-11-19T02:35:34;10.00;99.90
14357;DHT22;7262;48.764;9.166;2023-11-19T02:38:01;10.00;99.90
14357;DHT22;7262;48.764;9.166;2023-11-19T02:40:29;10.10;99.90
14357;DHT22;7262;48.764;9.166;2023-11-19T02:42:56;10.10;99.90
14357;DHT22;7262;48.764;9.166;2023-11-19T02:45:25;10.00;99.90
14357;DHT22;7262;48.764;9.166;2023-11-19T02:47:51;10.10;99.90
14357;DHT22;7262;48.764;9.166;2023-11-19T02:50:19;10.10;99.90
14357;DHT22;7262;48.764;9.166;2023-11-19T02:52:51;10.10;99.90
14357;DHT22;7262;48.764;9.166;2023-11-19T02:55:18;10.10;99.90
14357;DHT22;7262;48.764;9.166;2023-11-19T02:57:45;10.10;99.90
14357;DHT22;7262;48.764;9.166;2023-11-19T03:00:14;10.10;99.90
14357;DHT22;7262;48.764;9.166;2023-11-19T03:02:43;10.10;99.90
14357;DHT22;7262;48.764;9.166;2023-11-19T03:05:12;10.10;99.90
14357;DHT22;7262;48.764;9.166;2023-11-19T03:07:40;10.10;99.90
14357;DHT22;7262;48.764;9.166;2023-11-19T03:10:08;10.10;99.90
14357;DHT22;7262;48.764;9.166;2023-11-19T03:12:38;10.10;99.90
14357;DHT22;7262;48.764;9.166;2023-11-19T03:15:05;10.10;99.90
14357;DHT22;7262;48.764;9.166;2023-11-19T03:17:32;10.20;99.90
14357;DHT22;7262;48.764;9.166;2023-11-19T03:20:00;10.20;99.90
14357;DHT22;7262;48.764;9.166;2023-11-19T03:22:27;10.20;99.90
14357;DHT22;7262;48.764;9.166;2023-11-19T03:24:54;10.20;99.90
14357;DHT22;7262;48.764;9.166;2023-11-19T03:27:21;10.20;99.90
14357;DHT22;7262;48.764;9.166;2023-11-19T03:29:48;10.20;99.90
14357;DHT22;7262;48.764;9.166;2023-11-19T03:32:15;10.20;99.90
14357;DHT22;7262;48.764;9.166;2023-11-19T03:34:42;10.20;99.90
14357;DHT22;7262;48.764;9.166;2023-11-19T03:37:10;10.20;99.90
14357;DHT22;7262;48.764;9.166;2023-11-19T03:39:38;10.20;99.90
14357;DHT22;7262;48.764;9.166;2023-11-19T03:42:05;10.20;99.90
14357;DHT22;7262;48.764;9.166;2023-11-19T03:44:31;10.30;99.90
14357;DHT22;7262;48.764;9.166;2023-11-19T03:46:58;10.30;99.90
14357;DHT22;7262;48.764;9.166;2023-11-19T03:49:25;10.30;99.90
14357;DHT22;7262;48.764;9.166;2023-11-19T03:51:54;10.30;99.90
14357;DHT22;7262;48.764;9.166;2023-11-19T03:54:22;10.30;99.90
14357;DHT22;7262;48.764;9.166;2023-11-19T03:56:49;10.30;99.90
14357;DHT22;7262;48.764;9.166;2023-11-19T03:59:15;10.30;99.90
14357;DHT22;7262;48.764;9.166;2023-11-19T04:01:42;10.40;99.90
14357;DHT22;7262;48.764;9.166;2023-11-19T04:04:09;10.40;99.90
14357;DHT22;7262;48.764;9.166;2023-11-19T04:06:36;10.30;99.90
14357;DHT22;7262;48.764;9.166;2023-11-19T04:09:02;10.50;99.90
14357;DHT22;7262;48.764;9.166;2023-11-19T04:11:31;10.40;99.90
14357;DHT22;7262;48.764;9.166;2023-11-19T04:13:58;10.40;99.90
14357;DHT22;7262;48.764;9.166;2023-11-19T04:16:27;10.40;99.90
14357;DHT22;7262;48.764;9.166;2023-11-19T04:18:55;10.40;99.90
14357;DHT22;7262;48.764;9.166;2023-11-19T04:21:22;10.40;99.90
14357;DHT22;7262;48.764;9.166;2023-11-19T04:23:49;10.40;99.90
14357;DHT22;7262;48.764;9.166;2023-11-19T04:26:16;10.40;99.90
14357;DHT22;7262;48.764;9.166;2023-11-19T04:28:44;10.40;99.90
14357;DHT22;7262;48.764;9.166;2023-11-19T04:31:11;10.40;99.90
14357;DHT22;7262;48.764;9.166;2023-11-19T04:33:37;10.50;99.90
14357;DHT22;7262;48.764;9.166;2023-11-19T04:36:04;10.40;99.90
14357;DHT22;7262;48.764;9.166;2023-11-19T04:38:32;10.50;99.90
14357;DHT22;7262;48.764;9.166;2023-11-19T04:41:00;10.50;99.90
14357;DHT22;7262;48.764;9.166;2023-11-19T04:43:27;10.60;99.90
14357;DHT22;7262;48.764;9.166;2023-11-19T04:45:55;10.60;99.90
14357;DHT22;7262;48.764;9.166;2023-11-19T04:48:22;10.60;99.90
14357;DHT22;7262;48.764;9.166;2023-11-19T04:50:49;10.60;99.90
14357;DHT22;7262;48.764;9.166;2023-11-19T04:53:16;10.60;99.90
14357;DHT22;7262;48.764;9.166;2023-11-19T04:55:43;10.60;99.90
14357;DHT22;7262;48.764;9.166;2023-11-19T04:58:10;10.70;99.90
14357;DHT22;7262;48.764;9.166;2023-11-19T05:00:36;10.70;99.90
14357;DHT22;7262;48.764;9.166;2023-11-19T05:03:08;10.70;99.90
14357;DHT22;7262;48.764;9.166;2023-11-19T05:05:35;10.70;99.90
14357;DHT22;7262;48.764;9.166;2023-11-19T05:08:01;10.80;99.90
14357;DHT22;7262;48.764;9.166;2023-11-19T05:10:29;10.90;99.90
14357;DHT22;7262;48.764;9.166;2023-11-19T05:12:56;10.90;99.90
14357;DHT22;7262;48.764;9.166;2023-11-19T05:15:23;10.90;99.90
14357;DHT22;7262;48.764;9.166;2023-11-19T05:17:50;10.90;99.90
14357;DHT22;7262;48.764;9.166;2023-11-19T05:20:19;10.90;99.90
14357;DHT22;7262;48.764;9.166;2023-11-19T05:22:48;10.90;99.90
14357;DHT22;7262;48.764;9.166;2023-11-19T05:25:21;10.90;99.90
14357;DHT22;7262;48.764;9.166;2023-11-19T05:27:48;10.90;99.90
14357;DHT22;7262;48.764;9.166;2023-11-19T05:30:15;10.90;99.90
14357;DHT22;7262;48.764;9.166;2023-11-19T05:32:44;10.90;99.90
14357;DHT22;7262;48.764;9.166;2023-11-19T05:35:11;10.90;99.90
14357;DHT22;7262;48.764;9.166;2023-11-19T05:37:40;10.90;99.90
14357;DHT22;7262;48.764;9.166;2023-11-19T05:40:07;11.00;99.90
14357;DHT22;7262;48.764;9.166;2023-11-19T05:42:39;11.00;99.90
14357;DHT22;7262;48.764;9.166;2023-11-19T05:45:06;11.00;99.90
14357;DHT22;7262;48.764;9.166;2023-11-19T05:47:34;11.00;99.90
14357;DHT22;7262;48.764;9.166;2023-11-19T05:50:01;11.00;99.90
14357;DHT22;7262;48.764;9.166;2023-11-19T05:52:29;11.00;99.90
14357;DHT22;7262;48.764;9.166;2023-11-19T05:55:00;11.00;99.90
14357;DHT22;7262;48.764;9.166;2023-11-19T05:57:29;11.00;99.90
14357;DHT22;7262;48.764;9.166;2023-11-19T05:59:56;11.10;99.90
14357;DHT22;7262;48.764;9.166;2023-11-19T06:02:24;11.10;99.90
14357;DHT22;7262;48.764;9.166;2023-11-19T06:04:52;11.10;99.90
14357;DHT22;7262;48.764;9.166;2023-11-19T06:07:19;11.10;99.90
14357;DHT22;7262;48.764;9.166;2023-11-19T06:09:46;11.10;99.90
14357;DHT22;7262;48.764;9.166;2023-11-19T06:12:14;11.20;99.90
14357;DHT22;7262;48.764;9.166;2023-11-19T06:14:41;11.30;99.90
14357;DHT22;7262;48.764;9.166;2023-11-19T06:17:08;11.20;99.90
14357;DHT22;7262;48.764;9.166;2023-11-19T06:19:36;11.30;99.90
14357;DHT22;7262;48.764;9.166;2023-11-19T06:22:03;11.20;99.90
14357;DHT22;7262;48.764;9.166;2023-11-19T06:24:30;11.20;99.90
14357;DHT22;7262;48.764;9.166;2023-11-19T06:26:57;11.20;99.90
14357;DHT22;7262;48.764;9.166;2023-11-19T06:29:25;11.20;99.90
14357;DHT22;7262;48.764;9.166;2023-11-19T06:31:51;11.20;99.90
14357;DHT22;7262;48.764;9.166;2023-11-19T06:34:18;11.20;99.90
14357;DHT22;7262;48.764;9.166;2023-11-19T06:36:45;11.20;99.90
14357;DHT22;7262;48.764;9.166;2023-11-19T06:39:15;11.20;99.90
14357;DHT22;7262;48.764;9.166;2023-11-19T06:41:46;11.20;99.90
14357;DHT22;7262;48.764;9.166;2023-11-19T06:44:13;11.20;99.90
14357;DHT22;7262;48.764;9.166;2023-11-19T06:46:41;11.20;99.90
14357;DHT22;7262;48.764;9.166;2023-11-19T06:49:08;11.20;99.90
14357;DHT22;7262;48.764;9.166;2023-11-19T06:51:41;11.20;99.90
14357;DHT22;7262;48.764;9.166;2023-11-19T06:54:07;11.20;99.90
14357;DHT22;7262;48.764;9.166;2023-11-19T06:56:34;11.20;99.90
14357;DHT22;7262;48.764;9.166;2023-11-19T06:59:02;11.30;99.90
14357;DHT22;7262;48.764;9.166;2023-11-19T07:01:33;11.30;99.90
14357;DHT22;7262;48.764;9.166;2023-11-19T07:04:02;11.30;99.90
14357;DHT22;7262;48.764;9.166;2023-11-19T07:06:33;11.30;99.90
14357;DHT22;7262;48.764;9.166;2023-11-19T07:09:02;11.30;99.90
14357;DHT22;7262;48.764;9.166;2023-11-19T07:11:35;11.40;99.90
14357;DHT22;7262;48.764;9.166;2023-11-19T07:14:02;11.40;99.90
14357;DHT22;7262;48.764;9.166;2023-11-19T07:16:29;11.40;99.90
14357;DHT22;7262;48.764;9.166;2023-11-19T07:18:56;11.50;99.90
14357;DHT22;7262;48.764;9.166;2023-11-19T07:21:25;11.50;99.90
14357;DHT22;7262;48.764;9.166;2023-11-19T07:23:53;11.60;99.90
14357;DHT22;7262;48.764;9.166;2023-11-19T07:26:20;11.60;99.90
14357;DHT22;7262;48.764;9.166;2023-11-19T07:28:47;11.60;99.90
14357;DHT22;7262;48.764;9.166;2023-11-19T07:31:14;11.60;99.90
14357;DHT22;7262;48.764;9.166;2023-11-19T07:33:40;11.50;99.90
14357;DHT22;7262;48.764;9.166;2023-11-19T07:36:08;11.80;99.90
14357;DHT22;7262;48.764;9.166;2023-11-19T07:38:36;11.80;99.90
14357;DHT22;7262;48.764;9.166;2023-11-19T07:41:03;11.80;99.90
14357;DHT22;7262;48.764;9.166;2023-11-19T07:43:30;11.80;99.90
14357;DHT22;7262;48.764;9.166;2023-11-19T07:45:57;11.70;99.90
14357;DHT22;7262;48.764;9.166;2023-11-19T07:48:25;11.80;99.90
14357;DHT22;7262;48.764;9.166;2023-11-19T07:50:52;11.70;99.90
14357;DHT22;7262;48.764;9.166;2023-11-19T07:53:19;11.70;99.90
14357;DHT22;7262;48.764;9.166;2023-11-19T07:55:47;11.90;99.90
14357;DHT22;7262;48.764;9.166;2023-11-19T07:58:14;11.80;99.90
14357;DHT22;7262;48.764;9.166;2023-11-19T08:00:41;11.80;99.90
14357;DHT22;7262;48.764;9.166;2023-11-19T08:03:08;11.80;99.90
14357;DHT22;7262;48.764;9.166;2023-11-19T08:05:35;11.80;99.90
14357;DHT22;7262;48.764;9.166;2023-11-19T08:08:01;11.90;99.90
14357;DHT22;7262;48.764;9.166;2023-11-19T08:10:28;11.90;99.90
14357;DHT22;7262;48.764;9.166;2023-11-19T08:12:56;12.00;99.90
14357;DHT22;7262;48.764;9.166;2023-11-19T08:15:23;12.10;99.90
14357;DHT22;7262;48.764;9.166;2023-11-19T08:17:50;12.10;99.90
14357;DHT22;7262;48.764;9.166;2023-11-19T08:20:17;12.20;99.90
14357;DHT22;7262;48.764;9.166;2023-11-19T08:22:44;12.30;99.90
14357;DHT22;7262;48.764;9.166;2023-11-19T08:25:11;12.30;99.90
14357;DHT22;7262;48.764;9.166;2023-11-19T08:27:38;12.40;99.90
14357;DHT22;7262;48.764;9.166;2023-11-19T08:30:08;12.40;99.90
14357;DHT22;7262;48.764;9.166;2023-11-19T08:32:36;12.40;99.90
14357;DHT22;7262;48.764;9.166;2023-11-19T08:35:03;12.50;99.90
14357;DHT22;7262;48.764;9.166;2023-11-19T08:37:30;12.60;99.90
14357;DHT22;7262;48.764;9.166;2023-11-19T08:39:57;12.80;99.90
14357;DHT22;7262;48.764;9.166;2023-11-19T08:42:24;12.80;99.90
14357;DHT22;7262;48.764;9.166;2023-11-19T08:44:51;12.80;99.90
14357;DHT22;7262;48.764;9.166;2023-11-19T08:47:21;13.00;99.90
14357;DHT22;7262;48.764;9.166;2023-11-19T08:49:50;13.00;99.90
14357;DHT22;7262;48.764;9.166;2023-11-19T08:52:18;13.10;99.90
14357;DHT22;7262;48.764;9.166;2023-11-19T08:54:44;13.00;99.90
14357;DHT22;7262;48.764;9.166;2023-11-19T08:57:11;13.00;99.90
14357;DHT22;7262;48.764;9.166;2023-11-19T08:59:38;13.10;99.90
14357;DHT22;7262;48.764;9.166;2023-11-19T09:02:05;13.00;99.90
14357;DHT22;7262;48.764;9.166;2023-11-19T09:04:34;13.00;99.90
14357;DHT22;7262;48.764;9.166;2023-11-19T09:07:01;13.10;99.90
14357;DHT22;7262;48.764;9.166;2023-11-19T09:09:28;13.30;99.90
14357;DHT22;7262;48.764;9.166;2023-11-19T09:11:55;13.40;99.90
14357;DHT22;7262;48.764;9.166;2023-11-19T09:14:22;13.70;99.90
14357;DHT22;7262;48.764;9.166;2023-11-19T09:16:51;13.80;99.90
14357;DHT22;7262;48.764;9.166;2023-11-19T09:19:18;13.90;99.90
14357;DHT22;7262;48.764;9.166;2023-11-19T09:21:46;13.90;99.90
14357;DHT22;7262;48.764;9.166;2023-11-19T09:24:14;13.80;99.90
14357;DHT22;7262;48.764;9.166;2023-11-19T09:26:42;13.70;99.90
14357;DHT22;7262;48.764;9.166;2023-11-19T09:29:09;13.80;99.90
14357;DHT22;7262;48.764;9.166;2023-11-19T09:31:37;13.80;99.90
14357;DHT22;7262;48.764;9.166;2023-11-19T09:34:07;13.90;99.90
14357;DHT22;7262;48.764;9.166;2023-11-19T09:36:35;14.10;99.90
14357;DHT22;7262;48.764;9.166;2023-11-19T09:39:03;14.30;99.90
14357;DHT22;7262;48.764;9.166;2023-11-19T09:41:33;14.50;99.90
14357;DHT22;7262;48.764;9.166;2023-11-19T09:44:01;14.60;99.90
14357;DHT22;7262;48.764;9.166;2023-11-19T09:46:28;14.60;99.90
14357;DHT22;7262;48.764;9.166;2023-11-19T09:48:57;14.50;99.90
14357;DHT22;7262;48.764;9.166;2023-11-19T09:51:24;14.50;99.90
14357;DHT22;7262;48.764;9.166;2023-11-19T09:53:51;14.50;99.90
14357;DHT22;7262;48.764;9.166;2023-11-19T09:56:19;14.70;99.90
14357;DHT22;7262;48.764;9.166;2023-11-19T09:58:47;14.80;99.90
14357;DHT22;7262;48.764;9.166;2023-11-19T10:01:19;15.00;99.90
14357;DHT22;7262;48.764;9.166;2023-11-19T10:03:48;15.20;99.90
14357;DHT22;7262;48.764;9.166;2023-11-19T10:06:16;15.30;99.90
14357;DHT22;7262;48.764;9.166;2023-11-19T10:08:44;15.40;99.90
14357;DHT22;7262;48.764;9.166;2023-11-19T10:11:11;15.60;99.90
14357;DHT22;7262;48.764;9.166;2023-11-19T10:13:40;15.60;99.90
14357;DHT22;7262;48.764;9.166;2023-11-19T10:16:11;15.50;99.90
14357;DHT22;7262;48.764;9.166;2023-11-19T10:18:42;15.50;99.90
14357;DHT22;7262;48.764;9.166;2023-11-19T10:21:10;15.40;99.90
14357;DHT22;7262;48.764;9.166;2023-11-19T10:23:51;15.70;99.90
14357;DHT22;7262;48.764;9.166;2023-11-19T10:26:19;15.80;99.90
14357;DHT22;7262;48.764;9.166;2023-11-19T10:28:48;15.80;99.90
14357;DHT22;7262;48.764;9.166;2023-11-19T10:31:15;15.90;99.90
14357;DHT22;7262;48.764;9.166;2023-11-19T10:33:43;16.00;99.90
14357;DHT22;7262;48.764;9.166;2023-11-19T10:36:10;15.90;99.90
14357;DHT22;7262;48.764;9.166;2023-11-19T10:38:38;15.80;99.90
14357;DHT22;7262;48.764;9.166;2023-11-19T10:41:06;15.80;99.90
14357;DHT22;7262;48.764;9.166;2023-11-19T10:46:19;16.10;99.90
14357;DHT22;7262;48.764;9.166;2023-11-19T10:48:48;16.30;99.90
14357;DHT22;7262;48.764;9.166;2023-11-19T10:51:18;16.60;99.90
14357;DHT22;7262;48.764;9.166;2023-11-19T10:53:47;16.80;99.90
14357;DHT22;7262;48.764;9.166;2023-11-19T10:56:16;17.10;99.90
14357;DHT22;7262;48.764;9.166;2023-11-19T10:58:46;17.40;99.90
14357;DHT22;7262;48.764;9.166;2023-11-19T11:01:20;18.10;99.90
14357;DHT22;7262;48.764;9.166;2023-11-19T11:03:52;18.00;99.90
14357;DHT22;7262;48.764;9.166;2023-11-19T11:06:19;18.10;99.90
14357;DHT22;7262;48.764;9.166;2023-11-19T11:08:49;18.40;99.90
14357;DHT22;7262;48.764;9.166;2023-11-19T11:11:17;18.20;99.90
14357;DHT22;7262;48.764;9.166;2023-11-19T11:13:49;17.90;99.90
14357;DHT22;7262;48.764;9.166;2023-11-19T11:16:18;17.30;99.90
14357;DHT22;7262;48.764;9.166;2023-11-19T11:18:50;16.90;99.90
14357;DHT22;7262;48.764;9.166;2023-11-19T11:21:21;16.60;99.90
14357;DHT22;7262;48.764;9.166;2023-11-19T11:26:50;16.20;99.90
14357;DHT22;7262;48.764;9.166;2023-11-19T11:29:25;16.00;99.90
14357;DHT22;7262;48.764;9.166;2023-11-19T11:32:11;16.10;99.90
14357;DHT22;7262;48.764;9.166;2023-11-19T11:34:48;16.00;99.90
14357;DHT22;7262;48.764;9.166;2023-11-19T11:37:19;15.90;99.90
14357;DHT22;7262;48.764;9.166;2023-11-19T11:39:49;15.80;99.90
14357;DHT22;7262;48.764;9.166;2023-11-19T11:42:30;15.80;99.90
14357;DHT22;7262;48.764;9.166;2023-11-19T11:44:58;15.80;99.90
14357;DHT22;7262;48.764;9.166;2023-11-19T11:47:25;15.70;99.90
14357;DHT22;7262;48.764;9.166;2023-11-19T11:49:54;15.70;99.90
14357;DHT22;7262;48.764;9.166;2023-11-19T11:52:20;16.00;99.90
14357;DHT22;7262;48.764;9.166;2023-11-19T11:54:47;16.30;99.90
14357;DHT22;7262;48.764;9.166;2023-11-19T11:57:14;16.40;99.90
14357;DHT22;7262;48.764;9.166;2023-11-19T11:59:46;16.50;99.90
14357;DHT22;7262;48.764;9.166;2023-11-19T12:02:16;16.70;99.90
14357;DHT22;7262;48.764;9.166;2023-11-19T12:04:46;17.00;99.90
14357;DHT22;7262;48.764;9.166;2023-11-19T12:07:19;17.20;99.90
14357;DHT22;7262;48.764;9.166;2023-11-19T12:09:50;17.20;99.90
14357;DHT22;7262;48.764;9.166;2023-11-19T12:12:21;17.30;99.90
14357;DHT22;7262;48.764;9.166;2023-11-19T12:15:04;17.40;99.90
14357;DHT22;7262;48.764;9.166;2023-11-19T12:17:41;17.50;99.90
14357;DHT22;7262;48.764;9.166;2023-11-19T12:20:10;17.40;99.90
14357;DHT22;7262;48.764;9.166;2023-11-19T12:23:02;17.20;99.90
14357;DHT22;7262;48.764;9.166;2023-11-19T12:25:34;17.00;99.90
14357;DHT22;7262;48.764;9.166;2023-11-19T12:28:03;16.90;99.90
14357;DHT22;7262;48.764;9.166;2023-11-19T12:30:33;16.90;99.90
14357;DHT22;7262;48.764;9.166;2023-11-19T12:33:07;16.80;99.90
14357;DHT22;7262;48.764;9.166;2023-11-19T12:35:43;16.70;99.90
14357;DHT22;7262;48.764;9.166;2023-11-19T12:38:25;16.60;99.90
14357;DHT22;7262;48.764;9.166;2023-11-19T12:41:03;16.60;99.90
14357;DHT22;7262;48.764;9.166;2023-11-19T12:43:36;16.70;99.90
14357;DHT22;7262;48.764;9.166;2023-11-19T12:46:03;16.70;99.90
14357;DHT22;7262;48.764;9.166;2023-11-19T12:48:43;16.60;99.90
14357;DHT22;7262;48.764;9.166;2023-11-19T12:51:10;16.60;99.90
14357;DHT22;7262;48.764;9.166;2023-11-19T12:53:48;16.60;99.90
14357;DHT22;7262;48.764;9.166;2023-11-19T12:56:16;17.20;99.90
14357;DHT22;7262;48.764;9.166;2023-11-19T12:58:43;17.80;99.90
14357;DHT22;7262;48.764;9.166;2023-11-19T13:01:15;18.50;99.90
14357;DHT22;7262;48.764;9.166;2023-11-19T13:03:42;19.00;99.90
14357;DHT22;7262;48.764;9.166;2023-11-19T13:06:09;19.80;99.90
14357;DHT22;7262;48.764;9.166;2023-11-19T13:08:37;20.30;99.90
14357;DHT22;7262;48.764;9.166;2023-11-19T13:11:06;20.60;99.90
14357;DHT22;7262;48.764;9.166;2023-11-19T13:16:16;20.40;99.90
14357;DHT22;7262;48.764;9.166;2023-11-19T13:18:44;20.20;99.90
14357;DHT22;7262;48.764;9.166;2023-11-19T13:21:11;20.00;99.90
14357;DHT22;7262;48.764;9.166;2023-11-19T13:23:40;19.40;99.90
14357;DHT22;7262;48.764;9.166;2023-11-19T13:26:08;18.30;99.90
14357;DHT22;7262;48.764;9.166;2023-11-19T13:28:36;17.60;99.90
14357;DHT22;7262;48.764;9.166;2023-11-19T13:31:03;17.20;99.90
14357;DHT22;7262;48.764;9.166;2023-11-19T13:33:30;17.00;99.90
14357;DHT22;7262;48.764;9.166;2023-11-19T13:35:56;16.90;99.90
14357;DHT22;7262;48.764;9.166;2023-11-19T13:38:23;16.70;99.90
14357;DHT22;7262;48.764;9.166;2023-11-19T13:40:50;16.60;99.90
14357;DHT22;7262;48.764;9.166;2023-11-19T13:43:19;16.50;99.90
14357;DHT22;7262;48.764;9.166;2023-11-19T13:45:46;16.30;99.90
14357;DHT22;7262;48.764;9.166;2023-11-19T13:48:13;16.10;99.90
14357;DHT22;7262;48.764;9.166;2023-11-19T13:50:39;16.00;99.90
14357;DHT22;7262;48.764;9.166;2023-11-19T13:53:07;16.00;99.90
14357;DHT22;7262;48.764;9.166;2023-11-19T13:55:34;15.90;99.90
14357;DHT22;7262;48.764;9.166;2023-11-19T13:58:01;15.90;99.90
14357;DHT22;7262;48.764;9.166;2023-11-19T14:00:29;16.20;99.90
14357;DHT22;7262;48.764;9.166;2023-11-19T14:02:57;16.20;99.90
14357;DHT22;7262;48.764;9.166;2023-11-19T14:05:24;16.10;99.90
14357;DHT22;7262;48.764;9.166;2023-11-19T14:07:51;15.90;99.90
14357;DHT22;7262;48.764;9.166;2023-11-19T14:10:22;15.70;99.90
14357;DHT22;7262;48.764;9.166;2023-11-19T14:12:49;15.60;99.90
14357;DHT22;7262;48.764;9.166;2023-11-19T14:15:17;15.50;99.90
14357;DHT22;7262;48.764;9.166;2023-11-19T14:17:45;15.50;99.90
14357;DHT22;7262;48.764;9.166;2023-11-19T14:20:11;15.50;99.90
14357;DHT22;7262;48.764;9.166;2023-11-19T14:22:41;15.50;99.90
14357;DHT22;7262;48.764;9.166;2023-11-19T14:25:08;15.60;99.90
14357;DHT22;7262;48.764;9.166;2023-11-19T14:27:36;15.50;99.90
14357;DHT22;7262;48.764;9.166;2023-11-19T14:30:04;15.50;99.90
14357;DHT22;7262;48.764;9.166;2023-11-19T14:32:35;15.50;99.90
14357;DHT22;7262;48.764;9.166;2023-11-19T14:35:03;15.40;99.90
14357;DHT22;7262;48.764;9.166;2023-11-19T14:37:30;15.30;99.90
14357;DHT22;7262;48.764;9.166;2023-11-19T14:39:57;15.30;99.90
14357;DHT22;7262;48.764;9.166;2023-11-19T14:42:24;15.20;99.90
14357;DHT22;7262;48.764;9.166;2023-11-19T14:44:51;15.10;99.90
14357;DHT22;7262;48.764;9.166;2023-11-19T14:47:19;15.00;99.90
14357;DHT22;7262;48.764;9.166;2023-11-19T14:49:46;14.90;99.90
14357;DHT22;7262;48.764;9.166;2023-11-19T14:52:14;14.90;99.90
14357;DHT22;7262;48.764;9.166;2023-11-19T14:54:41;14.90;99.90
14357;DHT22;7262;48.764;9.166;2023-11-19T14:57:08;14.70;99.90
14357;DHT22;7262;48.764;9.166;2023-11-19T14:59:35;14.80;99.90
14357;DHT22;7262;48.764;9.166;2023-11-19T15:02:01;14.80;99.90
14357;DHT22;7262;48.764;9.166;2023-11-19T15:04:28;14.50;99.90
14357;DHT22;7262;48.764;9.166;2023-11-19T15:06:56;14.60;99.90
14357;DHT22;7262;48.764;9.166;2023-11-19T15:09:25;14.60;99.90
14357;DHT22;7262;48.764;9.166;2023-11-19T15:11:53;14.50;99.90
14357;DHT22;7262;48.764;9.166;2023-11-19T15:14:20;14.50;99.90
14357;DHT22;7262;48.764;9.166;2023-11-19T15:16:48;14.40;99.90
14357;DHT22;7262;48.764;9.166;2023-11-19T15:19:16;14.30;99.90
14357;DHT22;7262;48.764;9.166;2023-11-19T15:21:45;14.30;99.90
14357;DHT22;7262;48.764;9.166;2023-11-19T15:24:12;14.20;99.90
14357;DHT22;7262;48.764;9.166;2023-11-19T15:26:41;14.10;99.90
14357;DHT22;7262;48.764;9.166;2023-11-19T15:29:08;13.90;99.90
14357;DHT22;7262;48.764;9.166;2023-11-19T15:31:35;13.80;99.90
14357;DHT22;7262;48.764;9.166;2023-11-19T15:34:02;13.70;99.90
14357;DHT22;7262;48.764;9.166;2023-11-19T15:36:29;13.80;99.90
14357;DHT22;7262;48.764;9.166;2023-11-19T15:38:57;13.60;99.90
14357;DHT22;7262;48.764;9.166;2023-11-19T15:41:24;13.70;99.90
14357;DHT22;7262;48.764;9.166;2023-11-19T15:43:54;13.70;99.90
14357;DHT22;7262;48.764;9.166;2023-11-19T15:46:21;13.60;99.90
14357;DHT22;7262;48.764;9.166;2023-11-19T15:48:48;13.60;99.90
14357;DHT22;7262;48.764;9.166;2023-11-19T15:51:15;13.60;99.90
14357;DHT22;7262;48.764;9.166;2023-11-19T15:53:43;13.60;99.90
14357;DHT22;7262;48.764;9.166;2023-11-19T15:56:11;13.50;99.90
14357;DHT22;7262;48.764;9.166;2023-11-19T15:58:39;13.50;99.90
14357;DHT22;7262;48.764;9.166;2023-11-19T16:01:07;13.30;99.90
14357;DHT22;7262;48.764;9.166;2023-11-19T16:03:34;13.30;99.90